sensor_id;sensor_type;location;lat;lon;timestamp;P1;durP1;ratioP1;P2;durP2;ratioP2
3647;SDS011;1840;48.892;15.312;2022-08-25T00:01:54;52.53;;;13.30;;
3647;SDS011;1840;48.892;15.312;2022-08-25T00:04:27;13.13;;;10.60;;
3647;SDS011;1840;48.892;15.312;2022-08-25T00:06:55;11.63;;;9.00;;
3647;SDS011;1840;48.892;15.312;2022-08-25T00:09:29;11.97;;;9.53;;
3647;SDS011;1840;48.892;15.312;2022-08-25T00:11:58;10.50;;;8.90;;
3647;SDS011;1840;48.892;15.312;2022-08-25T00:14:28;9.90;;;8.73;;
3647;SDS011;1840;48.892;15.312;2022-08-25T00:17:02;8.77;;;7.87;;
3647;SDS011;1840;48.892;15.312;2022-08-25T00:19:33;9.10;;;7.80;;
3647;SDS011;1840;48.892;15.312;2022-08-25T00:22:02;11.70;;;9.40;;
3647;SDS011;1840;48.892;15.312;2022-08-25T00:24:31;14.27;;;11.43;;
3647;SDS011;1840;48.892;15.312;2022-08-25T00:26:59;15.50;;;11.67;;
3647;SDS011;1840;48.892;15.312;2022-08-25T00:29:28;15.63;;;11.37;;
3647;SDS011;1840;48.892;15.312;2022-08-25T00:31:57;17.40;;;12.83;;
3647;SDS011;1840;48.892;15.312;2022-08-25T00:34:27;15.70;;;11.97;;
3647;SDS011;1840;48.892;15.312;2022-08-25T00:36:59;23.00;;;15.73;;
3647;SDS011;1840;48.892;15.312;2022-08-25T00:39:28;19.50;;;14.63;;
3647;SDS011;1840;48.892;15.312;2022-08-25T00:41:56;20.77;;;14.90;;
3647;SDS011;1840;48.892;15.312;2022-08-25T00:44:24;15.93;;;11.00;;
3647;SDS011;1840;48.892;15.312;2022-08-25T00:46:54;12.13;;;10.33;;
3647;SDS011;1840;48.892;15.312;2022-08-25T00:49:25;10.50;;;8.30;;
3647;SDS011;1840;48.892;15.312;2022-08-25T00:51:57;22.27;;;9.80;;
3647;SDS011;1840;48.892;15.312;2022-08-25T00:54:30;13.43;;;9.00;;
3647;SDS011;1840;48.892;15.312;2022-08-25T00:57:02;13.70;;;9.50;;
3647;SDS011;1840;48.892;15.312;2022-08-25T00:59:31;16.13;;;11.20;;
3647;SDS011;1840;48.892;15.312;2022-08-25T01:02:01;15.60;;;10.53;;
3647;SDS011;1840;48.892;15.312;2022-08-25T01:04:34;27.37;;;11.90;;
3647;SDS011;1840;48.892;15.312;2022-08-25T01:07:04;15.33;;;10.40;;
3647;SDS011;1840;48.892;15.312;2022-08-25T01:09:40;21.23;;;12.87;;
3647;SDS011;1840;48.892;15.312;2022-08-25T01:12:10;20.90;;;13.03;;
3647;SDS011;1840;48.892;15.312;2022-08-25T01:14:38;20.83;;;14.20;;
3647;SDS011;1840;48.892;15.312;2022-08-25T01:17:07;18.03;;;13.10;;
3647;SDS011;1840;48.892;15.312;2022-08-25T01:19:36;18.67;;;14.20;;
3647;SDS011;1840;48.892;15.312;2022-08-25T01:22:05;53.50;;;17.77;;
3647;SDS011;1840;48.892;15.312;2022-08-25T01:24:34;82.00;;;16.63;;
3647;SDS011;1840;48.892;15.312;2022-08-25T01:27:07;34.43;;;15.47;;
3647;SDS011;1840;48.892;15.312;2022-08-25T01:29:36;19.43;;;14.13;;
3647;SDS011;1840;48.892;15.312;2022-08-25T01:32:06;22.20;;;15.50;;
3647;SDS011;1840;48.892;15.312;2022-08-25T01:34:38;25.13;;;15.40;;
3647;SDS011;1840;48.892;15.312;2022-08-25T01:37:10;24.70;;;15.03;;
3647;SDS011;1840;48.892;15.312;2022-08-25T01:39:39;62.23;;;16.27;;
3647;SDS011;1840;48.892;15.312;2022-08-25T01:42:17;19.10;;;14.27;;
3647;SDS011;1840;48.892;15.312;2022-08-25T01:44:50;16.00;;;13.00;;
3647;SDS011;1840;48.892;15.312;2022-08-25T01:47:18;15.43;;;12.40;;
3647;SDS011;1840;48.892;15.312;2022-08-25T01:49:47;16.30;;;12.40;;
3647;SDS011;1840;48.892;15.312;2022-08-25T01:52:18;27.67;;;14.73;;
3647;SDS011;1840;48.892;15.312;2022-08-25T01:54:50;50.97;;;16.33;;
3647;SDS011;1840;48.892;15.312;2022-08-25T01:57:18;64.20;;;19.33;;
3647;SDS011;1840;48.892;15.312;2022-08-25T01:59:47;39.73;;;18.63;;
3647;SDS011;1840;48.892;15.312;2022-08-25T02:02:15;35.60;;;20.57;;
3647;SDS011;1840;48.892;15.312;2022-08-25T02:04:43;37.87;;;20.27;;
3647;SDS011;1840;48.892;15.312;2022-08-25T02:07:13;35.13;;;19.57;;
3647;SDS011;1840;48.892;15.312;2022-08-25T02:09:42;28.33;;;20.00;;
3647;SDS011;1840;48.892;15.312;2022-08-25T02:12:10;27.23;;;20.13;;
3647;SDS011;1840;48.892;15.312;2022-08-25T02:14:39;28.60;;;20.33;;
3647;SDS011;1840;48.892;15.312;2022-08-25T02:17:07;30.63;;;21.30;;
3647;SDS011;1840;48.892;15.312;2022-08-25T02:19:36;25.53;;;17.73;;
3647;SDS011;1840;48.892;15.312;2022-08-25T02:22:04;28.73;;;19.77;;
3647;SDS011;1840;48.892;15.312;2022-08-25T02:24:32;25.03;;;17.80;;
3647;SDS011;1840;48.892;15.312;2022-08-25T02:27:02;24.80;;;18.70;;
3647;SDS011;1840;48.892;15.312;2022-08-25T02:29:31;28.00;;;18.40;;
3647;SDS011;1840;48.892;15.312;2022-08-25T02:32:00;28.60;;;20.20;;
3647;SDS011;1840;48.892;15.312;2022-08-25T02:34:29;24.50;;;18.33;;
3647;SDS011;1840;48.892;15.312;2022-08-25T02:36:57;36.97;;;20.77;;
3647;SDS011;1840;48.892;15.312;2022-08-25T02:39:25;25.97;;;18.50;;
3647;SDS011;1840;48.892;15.312;2022-08-25T02:41:53;28.13;;;17.20;;
3647;SDS011;1840;48.892;15.312;2022-08-25T02:44:23;28.53;;;17.03;;
3647;SDS011;1840;48.892;15.312;2022-08-25T02:46:51;26.80;;;18.83;;
3647;SDS011;1840;48.892;15.312;2022-08-25T02:49:20;30.80;;;20.20;;
3647;SDS011;1840;48.892;15.312;2022-08-25T02:51:49;25.90;;;17.87;;
3647;SDS011;1840;48.892;15.312;2022-08-25T02:54:17;22.63;;;15.87;;
3647;SDS011;1840;48.892;15.312;2022-08-25T02:56:46;25.17;;;18.30;;
3647;SDS011;1840;48.892;15.312;2022-08-25T02:59:15;36.90;;;21.70;;
3647;SDS011;1840;48.892;15.312;2022-08-25T03:01:46;25.80;;;18.50;;
3647;SDS011;1840;48.892;15.312;2022-08-25T03:04:15;25.10;;;18.87;;
3647;SDS011;1840;48.892;15.312;2022-08-25T03:06:44;28.90;;;17.03;;
3647;SDS011;1840;48.892;15.312;2022-08-25T03:09:13;33.10;;;17.87;;
3647;SDS011;1840;48.892;15.312;2022-08-25T03:11:41;26.80;;;15.33;;
3647;SDS011;1840;48.892;15.312;2022-08-25T03:14:09;19.10;;;14.83;;
3647;SDS011;1840;48.892;15.312;2022-08-25T03:16:38;17.03;;;13.43;;
3647;SDS011;1840;48.892;15.312;2022-08-25T03:19:13;21.20;;;14.93;;
3647;SDS011;1840;48.892;15.312;2022-08-25T03:21:42;24.27;;;15.60;;
3647;SDS011;1840;48.892;15.312;2022-08-25T03:24:11;21.00;;;16.53;;
3647;SDS011;1840;48.892;15.312;2022-08-25T03:26:39;18.20;;;13.50;;
3647;SDS011;1840;48.892;15.312;2022-08-25T03:29:21;17.33;;;13.83;;
3647;SDS011;1840;48.892;15.312;2022-08-25T03:31:51;22.00;;;16.77;;
3647;SDS011;1840;48.892;15.312;2022-08-25T03:34:22;25.63;;;17.50;;
3647;SDS011;1840;48.892;15.312;2022-08-25T03:36:53;24.70;;;18.33;;
3647;SDS011;1840;48.892;15.312;2022-08-25T03:39:23;27.43;;;19.33;;
3647;SDS011;1840;48.892;15.312;2022-08-25T03:41:52;28.30;;;17.63;;
3647;SDS011;1840;48.892;15.312;2022-08-25T03:44:21;21.63;;;16.63;;
3647;SDS011;1840;48.892;15.312;2022-08-25T03:46:50;38.63;;;17.23;;
3647;SDS011;1840;48.892;15.312;2022-08-25T03:49:19;29.80;;;18.90;;
3647;SDS011;1840;48.892;15.312;2022-08-25T03:51:50;26.00;;;19.00;;
3647;SDS011;1840;48.892;15.312;2022-08-25T03:54:21;34.07;;;18.07;;
3647;SDS011;1840;48.892;15.312;2022-08-25T03:56:50;26.53;;;19.07;;
3647;SDS011;1840;48.892;15.312;2022-08-25T03:59:19;26.73;;;18.97;;
3647;SDS011;1840;48.892;15.312;2022-08-25T04:01:48;26.43;;;16.67;;
3647;SDS011;1840;48.892;15.312;2022-08-25T04:04:21;30.00;;;19.67;;
3647;SDS011;1840;48.892;15.312;2022-08-25T04:06:51;33.17;;;18.50;;
3647;SDS011;1840;48.892;15.312;2022-08-25T04:09:19;29.10;;;19.20;;
3647;SDS011;1840;48.892;15.312;2022-08-25T04:11:47;32.73;;;21.27;;
3647;SDS011;1840;48.892;15.312;2022-08-25T04:14:18;26.33;;;17.83;;
3647;SDS011;1840;48.892;15.312;2022-08-25T04:16:47;25.77;;;20.10;;
3647;SDS011;1840;48.892;15.312;2022-08-25T04:19:16;25.40;;;18.93;;
3647;SDS011;1840;48.892;15.312;2022-08-25T04:21:47;31.70;;;20.80;;
3647;SDS011;1840;48.892;15.312;2022-08-25T04:24:22;31.60;;;22.40;;
3647;SDS011;1840;48.892;15.312;2022-08-25T04:26:50;34.53;;;23.10;;
3647;SDS011;1840;48.892;15.312;2022-08-25T04:29:19;34.27;;;24.80;;
3647;SDS011;1840;48.892;15.312;2022-08-25T04:31:49;33.13;;;24.03;;
3647;SDS011;1840;48.892;15.312;2022-08-25T04:34:19;39.27;;;24.73;;
3647;SDS011;1840;48.892;15.312;2022-08-25T04:36:58;32.63;;;22.10;;
3647;SDS011;1840;48.892;15.312;2022-08-25T04:39:28;43.10;;;26.00;;
3647;SDS011;1840;48.892;15.312;2022-08-25T04:41:57;38.57;;;25.10;;
3647;SDS011;1840;48.892;15.312;2022-08-25T04:44:26;36.87;;;24.27;;
3647;SDS011;1840;48.892;15.312;2022-08-25T04:46:56;31.63;;;23.13;;
3647;SDS011;1840;48.892;15.312;2022-08-25T04:49:24;40.43;;;24.57;;
3647;SDS011;1840;48.892;15.312;2022-08-25T04:51:53;39.47;;;25.40;;
3647;SDS011;1840;48.892;15.312;2022-08-25T04:54:24;32.00;;;25.27;;
3647;SDS011;1840;48.892;15.312;2022-08-25T04:56:53;36.03;;;23.90;;
3647;SDS011;1840;48.892;15.312;2022-08-25T04:59:24;36.40;;;25.63;;
3647;SDS011;1840;48.892;15.312;2022-08-25T05:01:56;34.53;;;25.97;;
3647;SDS011;1840;48.892;15.312;2022-08-25T05:04:28;33.77;;;23.80;;
3647;SDS011;1840;48.892;15.312;2022-08-25T05:06:56;34.87;;;23.30;;
3647;SDS011;1840;48.892;15.312;2022-08-25T05:09:26;38.53;;;26.13;;
3647;SDS011;1840;48.892;15.312;2022-08-25T05:11:58;45.40;;;27.53;;
3647;SDS011;1840;48.892;15.312;2022-08-25T05:14:27;39.37;;;28.07;;
3647;SDS011;1840;48.892;15.312;2022-08-25T05:16:55;39.53;;;25.60;;
3647;SDS011;1840;48.892;15.312;2022-08-25T05:19:24;35.73;;;25.43;;
3647;SDS011;1840;48.892;15.312;2022-08-25T05:21:53;40.10;;;26.10;;
3647;SDS011;1840;48.892;15.312;2022-08-25T05:24:23;44.17;;;27.10;;
3647;SDS011;1840;48.892;15.312;2022-08-25T05:26:53;39.23;;;27.20;;
3647;SDS011;1840;48.892;15.312;2022-08-25T05:29:21;53.77;;;31.33;;
3647;SDS011;1840;48.892;15.312;2022-08-25T05:31:50;56.73;;;32.93;;
3647;SDS011;1840;48.892;15.312;2022-08-25T05:34:19;56.70;;;35.40;;
3647;SDS011;1840;48.892;15.312;2022-08-25T05:36:48;41.50;;;29.03;;
3647;SDS011;1840;48.892;15.312;2022-08-25T05:39:16;58.33;;;30.07;;
3647;SDS011;1840;48.892;15.312;2022-08-25T05:41:45;48.83;;;32.00;;
3647;SDS011;1840;48.892;15.312;2022-08-25T05:44:15;42.43;;;28.77;;
3647;SDS011;1840;48.892;15.312;2022-08-25T05:46:46;62.60;;;36.47;;
3647;SDS011;1840;48.892;15.312;2022-08-25T05:49:15;48.00;;;31.87;;
3647;SDS011;1840;48.892;15.312;2022-08-25T05:51:43;46.60;;;29.17;;
3647;SDS011;1840;48.892;15.312;2022-08-25T05:54:12;46.80;;;30.93;;
3647;SDS011;1840;48.892;15.312;2022-08-25T05:56:40;43.67;;;31.07;;
3647;SDS011;1840;48.892;15.312;2022-08-25T05:59:08;47.50;;;34.27;;
3647;SDS011;1840;48.892;15.312;2022-08-25T06:01:37;54.03;;;32.43;;
3647;SDS011;1840;48.892;15.312;2022-08-25T06:04:24;65.87;;;38.03;;
3647;SDS011;1840;48.892;15.312;2022-08-25T06:06:52;64.20;;;37.30;;
3647;SDS011;1840;48.892;15.312;2022-08-25T06:09:21;55.97;;;35.40;;
3647;SDS011;1840;48.892;15.312;2022-08-25T06:11:49;61.60;;;37.13;;
3647;SDS011;1840;48.892;15.312;2022-08-25T06:14:20;55.70;;;35.40;;
3647;SDS011;1840;48.892;15.312;2022-08-25T06:16:51;47.50;;;32.60;;
3647;SDS011;1840;48.892;15.312;2022-08-25T06:19:19;48.40;;;32.67;;
3647;SDS011;1840;48.892;15.312;2022-08-25T06:21:51;77.10;;;45.97;;
3647;SDS011;1840;48.892;15.312;2022-08-25T06:24:20;59.43;;;36.93;;
3647;SDS011;1840;48.892;15.312;2022-08-25T06:26:49;53.93;;;36.17;;
3647;SDS011;1840;48.892;15.312;2022-08-25T06:29:18;59.57;;;37.97;;
3647;SDS011;1840;48.892;15.312;2022-08-25T06:31:47;65.70;;;38.97;;
3647;SDS011;1840;48.892;15.312;2022-08-25T06:34:17;58.53;;;37.93;;
3647;SDS011;1840;48.892;15.312;2022-08-25T06:36:49;64.20;;;38.00;;
3647;SDS011;1840;48.892;15.312;2022-08-25T06:39:17;57.00;;;38.60;;
3647;SDS011;1840;48.892;15.312;2022-08-25T06:41:49;59.00;;;39.30;;
3647;SDS011;1840;48.892;15.312;2022-08-25T06:44:18;59.97;;;37.77;;
3647;SDS011;1840;48.892;15.312;2022-08-25T06:46:47;53.50;;;36.50;;
3647;SDS011;1840;48.892;15.312;2022-08-25T06:49:15;57.73;;;38.80;;
3647;SDS011;1840;48.892;15.312;2022-08-25T06:51:45;60.83;;;38.17;;
3647;SDS011;1840;48.892;15.312;2022-08-25T06:54:14;60.07;;;35.90;;
3647;SDS011;1840;48.892;15.312;2022-08-25T06:56:42;63.23;;;38.53;;
3647;SDS011;1840;48.892;15.312;2022-08-25T06:59:10;66.47;;;38.57;;
3647;SDS011;1840;48.892;15.312;2022-08-25T07:01:38;74.17;;;39.10;;
3647;SDS011;1840;48.892;15.312;2022-08-25T07:04:08;62.63;;;40.83;;
3647;SDS011;1840;48.892;15.312;2022-08-25T07:06:40;58.77;;;39.10;;
3647;SDS011;1840;48.892;15.312;2022-08-25T07:09:08;62.93;;;40.63;;
3647;SDS011;1840;48.892;15.312;2022-08-25T07:11:37;63.20;;;38.93;;
3647;SDS011;1840;48.892;15.312;2022-08-25T07:14:06;66.77;;;41.07;;
3647;SDS011;1840;48.892;15.312;2022-08-25T07:16:37;66.97;;;40.20;;
3647;SDS011;1840;48.892;15.312;2022-08-25T07:19:11;67.17;;;42.10;;
3647;SDS011;1840;48.892;15.312;2022-08-25T07:21:41;79.23;;;38.30;;
3647;SDS011;1840;48.892;15.312;2022-08-25T07:24:11;79.97;;;39.80;;
3647;SDS011;1840;48.892;15.312;2022-08-25T07:26:41;75.53;;;41.50;;
3647;SDS011;1840;48.892;15.312;2022-08-25T07:29:12;68.93;;;38.90;;
3647;SDS011;1840;48.892;15.312;2022-08-25T07:31:43;62.67;;;38.37;;
3647;SDS011;1840;48.892;15.312;2022-08-25T07:34:12;65.50;;;41.57;;
3647;SDS011;1840;48.892;15.312;2022-08-25T07:37:01;76.93;;;46.00;;
3647;SDS011;1840;48.892;15.312;2022-08-25T07:39:31;72.33;;;45.57;;
3647;SDS011;1840;48.892;15.312;2022-08-25T07:42:01;75.40;;;45.27;;
3647;SDS011;1840;48.892;15.312;2022-08-25T07:44:37;66.10;;;41.23;;
3647;SDS011;1840;48.892;15.312;2022-08-25T07:47:08;64.27;;;40.43;;
3647;SDS011;1840;48.892;15.312;2022-08-25T07:49:36;74.43;;;44.03;;
3647;SDS011;1840;48.892;15.312;2022-08-25T07:52:06;72.23;;;42.93;;
3647;SDS011;1840;48.892;15.312;2022-08-25T07:54:35;86.27;;;45.37;;
3647;SDS011;1840;48.892;15.312;2022-08-25T07:57:05;77.30;;;43.77;;
3647;SDS011;1840;48.892;15.312;2022-08-25T07:59:38;62.57;;;38.73;;
3647;SDS011;1840;48.892;15.312;2022-08-25T08:02:07;78.10;;;41.63;;
3647;SDS011;1840;48.892;15.312;2022-08-25T08:04:44;78.83;;;45.10;;
3647;SDS011;1840;48.892;15.312;2022-08-25T08:07:17;74.23;;;42.67;;
3647;SDS011;1840;48.892;15.312;2022-08-25T08:09:48;72.03;;;41.20;;
3647;SDS011;1840;48.892;15.312;2022-08-25T08:12:37;71.50;;;43.63;;
3647;SDS011;1840;48.892;15.312;2022-08-25T08:15:05;59.67;;;38.93;;
3647;SDS011;1840;48.892;15.312;2022-08-25T08:17:36;67.57;;;41.63;;
3647;SDS011;1840;48.892;15.312;2022-08-25T08:20:05;70.47;;;40.23;;
3647;SDS011;1840;48.892;15.312;2022-08-25T08:22:37;79.47;;;42.23;;
3647;SDS011;1840;48.892;15.312;2022-08-25T08:25:08;65.17;;;39.57;;
3647;SDS011;1840;48.892;15.312;2022-08-25T08:27:46;71.57;;;39.70;;
3647;SDS011;1840;48.892;15.312;2022-08-25T08:30:20;63.23;;;40.27;;
3647;SDS011;1840;48.892;15.312;2022-08-25T08:32:51;59.33;;;38.00;;
3647;SDS011;1840;48.892;15.312;2022-08-25T08:35:37;69.33;;;40.17;;
3647;SDS011;1840;48.892;15.312;2022-08-25T08:38:07;68.47;;;38.53;;
3647;SDS011;1840;48.892;15.312;2022-08-25T08:40:47;60.43;;;35.53;;
3647;SDS011;1840;48.892;15.312;2022-08-25T08:43:38;74.50;;;41.43;;
3647;SDS011;1840;48.892;15.312;2022-08-25T08:46:09;73.77;;;39.43;;
3647;SDS011;1840;48.892;15.312;2022-08-25T08:48:40;67.07;;;39.83;;
3647;SDS011;1840;48.892;15.312;2022-08-25T08:51:18;57.53;;;35.70;;
3647;SDS011;1840;48.892;15.312;2022-08-25T08:53:53;68.83;;;39.37;;
3647;SDS011;1840;48.892;15.312;2022-08-25T08:56:27;67.77;;;36.90;;
3647;SDS011;1840;48.892;15.312;2022-08-25T08:58:58;59.07;;;35.50;;
3647;SDS011;1840;48.892;15.312;2022-08-25T09:01:32;66.23;;;37.40;;
3647;SDS011;1840;48.892;15.312;2022-08-25T09:04:08;58.20;;;37.20;;
3647;SDS011;1840;48.892;15.312;2022-08-25T09:06:41;68.87;;;38.60;;
3647;SDS011;1840;48.892;15.312;2022-08-25T09:09:13;56.40;;;35.60;;
3647;SDS011;1840;48.892;15.312;2022-08-25T09:11:50;59.67;;;35.60;;
3647;SDS011;1840;48.892;15.312;2022-08-25T09:14:28;58.90;;;34.47;;
3647;SDS011;1840;48.892;15.312;2022-08-25T09:17:08;62.10;;;34.63;;
3647;SDS011;1840;48.892;15.312;2022-08-25T09:20:00;65.50;;;37.13;;
3647;SDS011;1840;48.892;15.312;2022-08-25T09:22:47;73.40;;;36.67;;
3647;SDS011;1840;48.892;15.312;2022-08-25T09:25:26;64.23;;;34.47;;
3647;SDS011;1840;48.892;15.312;2022-08-25T09:28:19;58.40;;;34.50;;
3647;SDS011;1840;48.892;15.312;2022-08-25T09:30:53;53.87;;;34.90;;
3647;SDS011;1840;48.892;15.312;2022-08-25T09:33:26;52.40;;;33.13;;
3647;SDS011;1840;48.892;15.312;2022-08-25T09:35:59;58.03;;;35.03;;
3647;SDS011;1840;48.892;15.312;2022-08-25T09:38:31;53.00;;;35.07;;
3647;SDS011;1840;48.892;15.312;2022-08-25T09:41:01;58.37;;;33.47;;
3647;SDS011;1840;48.892;15.312;2022-08-25T09:43:31;62.37;;;34.00;;
3647;SDS011;1840;48.892;15.312;2022-08-25T09:46:01;66.30;;;35.20;;
3647;SDS011;1840;48.892;15.312;2022-08-25T09:48:41;55.53;;;32.70;;
3647;SDS011;1840;48.892;15.312;2022-08-25T09:51:23;69.80;;;35.03;;
3647;SDS011;1840;48.892;15.312;2022-08-25T09:54:15;61.53;;;33.13;;
3647;SDS011;1840;48.892;15.312;2022-08-25T09:56:52;67.47;;;33.03;;
3647;SDS011;1840;48.892;15.312;2022-08-25T09:59:24;59.90;;;35.67;;
3647;SDS011;1840;48.892;15.312;2022-08-25T10:02:01;65.53;;;34.33;;
3647;SDS011;1840;48.892;15.312;2022-08-25T10:04:33;55.43;;;35.30;;
3647;SDS011;1840;48.892;15.312;2022-08-25T10:07:19;56.80;;;34.00;;
3647;SDS011;1840;48.892;15.312;2022-08-25T10:09:52;58.20;;;35.70;;
3647;SDS011;1840;48.892;15.312;2022-08-25T10:12:24;54.23;;;34.63;;
3647;SDS011;1840;48.892;15.312;2022-08-25T10:14:57;65.40;;;34.10;;
3647;SDS011;1840;48.892;15.312;2022-08-25T10:17:26;53.50;;;32.67;;
3647;SDS011;1840;48.892;15.312;2022-08-25T10:20:13;54.37;;;31.13;;
3647;SDS011;1840;48.892;15.312;2022-08-25T10:22:45;46.13;;;27.47;;
3647;SDS011;1840;48.892;15.312;2022-08-25T10:25:19;57.93;;;30.73;;
3647;SDS011;1840;48.892;15.312;2022-08-25T10:28:07;48.87;;;29.20;;
3647;SDS011;1840;48.892;15.312;2022-08-25T10:30:45;45.60;;;27.23;;
3647;SDS011;1840;48.892;15.312;2022-08-25T10:33:22;49.67;;;28.07;;
3647;SDS011;1840;48.892;15.312;2022-08-25T10:36:03;44.83;;;26.03;;
3647;SDS011;1840;48.892;15.312;2022-08-25T10:38:46;44.57;;;25.73;;
3647;SDS011;1840;48.892;15.312;2022-08-25T10:44:18;53.53;;;22.90;;
3647;SDS011;1840;48.892;15.312;2022-08-25T10:47:15;41.13;;;24.47;;
3647;SDS011;1840;48.892;15.312;2022-08-25T10:49:55;39.47;;;24.67;;
3647;SDS011;1840;48.892;15.312;2022-08-25T10:52:31;44.23;;;23.67;;
3647;SDS011;1840;48.892;15.312;2022-08-25T10:55:06;45.87;;;23.30;;
3647;SDS011;1840;48.892;15.312;2022-08-25T10:57:47;42.63;;;20.90;;
3647;SDS011;1840;48.892;15.312;2022-08-25T11:00:29;41.40;;;20.30;;
3647;SDS011;1840;48.892;15.312;2022-08-25T11:03:21;39.97;;;19.50;;
3647;SDS011;1840;48.892;15.312;2022-08-25T11:06:02;34.07;;;19.80;;
3647;SDS011;1840;48.892;15.312;2022-08-25T11:08:36;34.40;;;18.50;;
3647;SDS011;1840;48.892;15.312;2022-08-25T11:11:11;29.10;;;17.50;;
3647;SDS011;1840;48.892;15.312;2022-08-25T11:13:52;33.60;;;19.60;;
3647;SDS011;1840;48.892;15.312;2022-08-25T11:16:30;25.60;;;17.87;;
3647;SDS011;1840;48.892;15.312;2022-08-25T11:19:07;32.70;;;16.93;;
3647;SDS011;1840;48.892;15.312;2022-08-25T11:21:43;30.80;;;15.03;;
3647;SDS011;1840;48.892;15.312;2022-08-25T11:24:28;34.53;;;14.97;;
3647;SDS011;1840;48.892;15.312;2022-08-25T11:27:03;35.33;;;14.97;;
3647;SDS011;1840;48.892;15.312;2022-08-25T11:29:33;27.13;;;15.00;;
3647;SDS011;1840;48.892;15.312;2022-08-25T11:32:06;34.67;;;14.10;;
3647;SDS011;1840;48.892;15.312;2022-08-25T11:34:35;31.10;;;14.70;;
3647;SDS011;1840;48.892;15.312;2022-08-25T11:37:12;25.83;;;15.30;;
3647;SDS011;1840;48.892;15.312;2022-08-25T11:39:58;28.03;;;12.77;;
3647;SDS011;1840;48.892;15.312;2022-08-25T11:42:43;24.33;;;12.60;;
3647;SDS011;1840;48.892;15.312;2022-08-25T11:48:26;27.20;;;12.50;;
3647;SDS011;1840;48.892;15.312;2022-08-25T11:51:02;26.23;;;11.67;;
3647;SDS011;1840;48.892;15.312;2022-08-25T11:53:35;29.23;;;13.13;;
3647;SDS011;1840;48.892;15.312;2022-08-25T11:56:08;36.17;;;13.00;;
3647;SDS011;1840;48.892;15.312;2022-08-25T11:58:40;26.27;;;14.73;;
3647;SDS011;1840;48.892;15.312;2022-08-25T12:01:13;26.20;;;12.43;;
3647;SDS011;1840;48.892;15.312;2022-08-25T12:04:33;19.30;;;11.63;;
3647;SDS011;1840;48.892;15.312;2022-08-25T12:07:15;28.23;;;13.07;;
3647;SDS011;1840;48.892;15.312;2022-08-25T12:10:09;33.50;;;13.23;;
3647;SDS011;1840;48.892;15.312;2022-08-25T12:13:04;25.37;;;11.93;;
3647;SDS011;1840;48.892;15.312;2022-08-25T12:15:54;30.80;;;12.03;;
3647;SDS011;1840;48.892;15.312;2022-08-25T12:18:38;28.23;;;12.00;;
3647;SDS011;1840;48.892;15.312;2022-08-25T12:21:14;20.43;;;11.23;;
3647;SDS011;1840;48.892;15.312;2022-08-25T12:24:07;25.23;;;12.90;;
3647;SDS011;1840;48.892;15.312;2022-08-25T12:26:41;27.40;;;12.43;;
3647;SDS011;1840;48.892;15.312;2022-08-25T12:29:16;28.30;;;12.77;;
3647;SDS011;1840;48.892;15.312;2022-08-25T12:31:58;24.67;;;13.30;;
3647;SDS011;1840;48.892;15.312;2022-08-25T12:34:51;22.27;;;12.17;;
3647;SDS011;1840;48.892;15.312;2022-08-25T12:40:32;26.37;;;13.03;;
3647;SDS011;1840;48.892;15.312;2022-08-25T12:43:09;24.63;;;13.43;;
3647;SDS011;1840;48.892;15.312;2022-08-25T12:45:45;32.67;;;13.30;;
3647;SDS011;1840;48.892;15.312;2022-08-25T12:51:51;26.50;;;14.50;;
3647;SDS011;1840;48.892;15.312;2022-08-25T12:54:45;26.50;;;13.47;;
3647;SDS011;1840;48.892;15.312;2022-08-25T13:00:13;22.33;;;12.23;;
3647;SDS011;1840;48.892;15.312;2022-08-25T13:03:07;28.93;;;12.03;;
3647;SDS011;1840;48.892;15.312;2022-08-25T13:06:09;29.10;;;11.50;;
3647;SDS011;1840;48.892;15.312;2022-08-25T13:08:56;26.70;;;11.60;;
3647;SDS011;1840;48.892;15.312;2022-08-25T13:11:55;29.03;;;12.17;;
3647;SDS011;1840;48.892;15.312;2022-08-25T13:14:35;22.87;;;10.10;;
3647;SDS011;1840;48.892;15.312;2022-08-25T13:17:05;33.00;;;11.47;;
3647;SDS011;1840;48.892;15.312;2022-08-25T13:19:40;24.90;;;10.80;;
3647;SDS011;1840;48.892;15.312;2022-08-25T13:22:14;21.63;;;9.03;;
3647;SDS011;1840;48.892;15.312;2022-08-25T13:24:53;19.10;;;9.27;;
3647;SDS011;1840;48.892;15.312;2022-08-25T13:27:32;17.63;;;8.47;;
3647;SDS011;1840;48.892;15.312;2022-08-25T13:30:15;19.63;;;8.80;;
3647;SDS011;1840;48.892;15.312;2022-08-25T13:32:55;21.53;;;8.93;;
3647;SDS011;1840;48.892;15.312;2022-08-25T13:35:29;13.87;;;7.23;;
3647;SDS011;1840;48.892;15.312;2022-08-25T13:38:10;19.53;;;8.23;;
3647;SDS011;1840;48.892;15.312;2022-08-25T13:40:39;24.80;;;8.70;;
3647;SDS011;1840;48.892;15.312;2022-08-25T13:43:11;17.30;;;7.73;;
3647;SDS011;1840;48.892;15.312;2022-08-25T13:45:44;18.23;;;8.50;;
3647;SDS011;1840;48.892;15.312;2022-08-25T13:48:30;14.00;;;7.27;;
3647;SDS011;1840;48.892;15.312;2022-08-25T13:51:16;21.80;;;8.13;;
3647;SDS011;1840;48.892;15.312;2022-08-25T13:53:47;25.27;;;7.80;;
3647;SDS011;1840;48.892;15.312;2022-08-25T13:56:26;14.20;;;7.23;;
3647;SDS011;1840;48.892;15.312;2022-08-25T13:59:11;20.23;;;8.03;;
3647;SDS011;1840;48.892;15.312;2022-08-25T14:01:50;22.63;;;8.40;;
3647;SDS011;1840;48.892;15.312;2022-08-25T14:04:28;19.67;;;8.97;;
3647;SDS011;1840;48.892;15.312;2022-08-25T14:07:05;17.67;;;8.40;;
3647;SDS011;1840;48.892;15.312;2022-08-25T14:09:38;21.50;;;8.23;;
3647;SDS011;1840;48.892;15.312;2022-08-25T14:12:24;15.67;;;7.50;;
3647;SDS011;1840;48.892;15.312;2022-08-25T14:15:00;16.10;;;8.60;;
3647;SDS011;1840;48.892;15.312;2022-08-25T14:17:32;15.97;;;8.00;;
3647;SDS011;1840;48.892;15.312;2022-08-25T14:20:16;16.07;;;7.53;;
3647;SDS011;1840;48.892;15.312;2022-08-25T14:22:51;27.57;;;8.70;;
3647;SDS011;1840;48.892;15.312;2022-08-25T14:25:24;15.87;;;6.87;;
3647;SDS011;1840;48.892;15.312;2022-08-25T14:27:56;18.00;;;8.13;;
3647;SDS011;1840;48.892;15.312;2022-08-25T14:30:34;21.23;;;7.90;;
3647;SDS011;1840;48.892;15.312;2022-08-25T14:33:13;23.30;;;9.23;;
3647;SDS011;1840;48.892;15.312;2022-08-25T14:35:46;22.13;;;8.27;;
3647;SDS011;1840;48.892;15.312;2022-08-25T14:38:16;21.40;;;8.53;;
3647;SDS011;1840;48.892;15.312;2022-08-25T14:40:46;22.23;;;9.00;;
3647;SDS011;1840;48.892;15.312;2022-08-25T14:43:15;16.00;;;9.10;;
3647;SDS011;1840;48.892;15.312;2022-08-25T14:45:49;23.77;;;9.63;;
3647;SDS011;1840;48.892;15.312;2022-08-25T14:48:21;19.03;;;8.30;;
3647;SDS011;1840;48.892;15.312;2022-08-25T14:50:53;19.40;;;11.40;;
3647;SDS011;1840;48.892;15.312;2022-08-25T14:53:23;21.57;;;9.43;;
3647;SDS011;1840;48.892;15.312;2022-08-25T14:55:54;29.83;;;10.10;;
3647;SDS011;1840;48.892;15.312;2022-08-25T14:58:24;22.97;;;10.00;;
3647;SDS011;1840;48.892;15.312;2022-08-25T15:00:59;37.07;;;19.40;;
3647;SDS011;1840;48.892;15.312;2022-08-25T15:03:34;23.93;;;11.80;;
3647;SDS011;1840;48.892;15.312;2022-08-25T15:06:04;17.00;;;8.90;;
3647;SDS011;1840;48.892;15.312;2022-08-25T15:08:36;22.43;;;12.57;;
3647;SDS011;1840;48.892;15.312;2022-08-25T15:11:22;24.50;;;10.50;;
3647;SDS011;1840;48.892;15.312;2022-08-25T15:13:51;21.47;;;9.93;;
3647;SDS011;1840;48.892;15.312;2022-08-25T15:16:21;17.67;;;9.23;;
3647;SDS011;1840;48.892;15.312;2022-08-25T15:19:02;23.70;;;10.20;;
3647;SDS011;1840;48.892;15.312;2022-08-25T15:21:32;23.83;;;9.90;;
3647;SDS011;1840;48.892;15.312;2022-08-25T15:24:01;15.50;;;9.40;;
3647;SDS011;1840;48.892;15.312;2022-08-25T15:26:30;24.23;;;9.67;;
3647;SDS011;1840;48.892;15.312;2022-08-25T15:29:02;22.73;;;9.40;;